Terminal Aerodrome Forecast
Issued by NWS

Home | Current Version | Previous Version | Text Only | Print | Product List | Glossary On
Versions: 1 2 3 4 5 6 7 8 9 10 11 12
639
FTAK31 PAJN 281120
TAFAKT
TAF
PAKT 281120Z 2812/2912 18005KT P6SM VCSH SCT010 BKN020 OVC050
     FM282100 VRB06KT P6SM -SHRA SCT025 BKN050
     FM290600 17005KT P6SM VCSH SCT025 BKN050
      AMD LTD TO CLD VIS AND WIND 2812/2815=

USA.gov is the U.S. government's official web portal to all federal, state and local government web resources and services.